Time;durP1;ratioP1;P1;durP2;ratioP2;P2;SDS_P1;SDS_P2;PMS_P1;PMS_P2;Temp;Humidity;BMP_temperature;BMP_pressure;BME280_temperature;BME280_humidity;BME280_pressure;Samples;Min_cycle;Max_cycle;Signal;HPM_P1;HPM_P2
2021/07/21 00:00:26;;;;;;;;;14.50;14.50;;;;;;;;5007198;28;8772;-83
2021/07/21 00:02:54;;;;;;;;;16.75;16.75;;;;;;;;5010388;28;8966;-81
2021/07/21 00:05:22;;;;;;;;;16.00;15.25;;;;;;;;5007192;28;8977;-81
2021/07/21 00:07:50;;;;;;;;;12.75;12.75;;;;;;;;5015419;28;9653;-81
2021/07/21 00:10:21;;;;;;;;;17.00;15.50;;;;;;;;5007218;28;9470;-84
2021/07/21 00:15:36;;;;;;;;;13.50;13.50;;;;;;;;5007652;28;8961;-82
2021/07/21 00:18:15;;;;;;;;;22.75;21.25;;;;;;;;5008114;28;8870;-83
2021/07/21 00:20:44;;;;;;;;;17.00;13.50;;;;;;;;5012200;28;9418;-88
2021/07/21 00:23:13;;;;;;;;;15.25;15.25;;;;;;;;5011130;28;8905;-87
2021/07/21 00:25:40;;;;;;;;;13.50;13.50;;;;;;;;5011108;28;8865;-85
2021/07/21 00:28:07;;;;;;;;;23.00;19.75;;;;;;;;5009940;28;8984;-85
2021/07/21 00:30:35;;;;;;;;;15.25;15.25;;;;;;;;5012241;28;8791;-83
2021/07/21 00:33:02;;;;;;;;;20.75;18.50;;;;;;;;5006832;28;8858;-85
2021/07/21 00:35:31;;;;;;;;;15.00;15.00;;;;;;;;5011394;28;9029;-86
2021/07/21 00:37:58;;;;;;;;;18.00;18.00;;;;;;;;5008964;28;8866;-86
2021/07/21 00:40:27;;;;;;;;;14.75;14.75;;;;;;;;5023563;28;8872;-83
2021/07/21 00:42:54;;;;;;;;;16.25;16.25;;;;;;;;5010255;28;9645;-82
2021/07/21 00:45:21;;;;;;;;;19.50;19.50;;;;;;;;5004869;28;8902;-85
2021/07/21 00:47:49;;;;;;;;;15.00;15.00;;;;;;;;5008592;28;8874;-82
2021/07/21 00:50:16;;;;;;;;;18.75;18.50;;;;;;;;5009866;28;8864;-83
2021/07/21 00:52:44;;;;;;;;;16.50;16.50;;;;;;;;5007555;28;8968;-84
2021/07/21 00:55:13;;;;;;;;;19.00;17.25;;;;;;;;5004298;28;8910;-85
2021/07/21 00:57:42;;;;;;;;;11.50;11.50;;;;;;;;5004756;28;8865;-84
2021/07/21 01:00:12;;;;;;;;;20.00;18.75;;;;;;;;5011211;28;8982;-83
2021/07/21 01:02:39;;;;;;;;;21.75;19.50;;;;;;;;5018537;28;8886;-83
2021/07/21 01:05:09;;;;;;;;;17.50;16.00;;;;;;;;5007385;28;8855;-82
2021/07/21 01:07:38;;;;;;;;;18.50;18.50;;;;;;;;5005616;28;8882;-82
2021/07/21 01:10:06;;;;;;;;;14.75;11.75;;;;;;;;5019054;28;8894;-85
2021/07/21 01:12:37;;;;;;;;;16.25;13.75;;;;;;;;5004317;28;8912;-83
2021/07/21 01:15:10;;;;;;;;;20.25;18.75;;;;;;;;5005211;28;8902;-84
2021/07/21 01:17:41;;;;;;;;;18.00;18.00;;;;;;;;5005372;28;8886;-84
2021/07/21 01:20:41;;;;;;;;;11.50;11.00;;;;;;;;5003823;28;8897;-84
2021/07/21 01:23:14;;;;;;;;;18.75;17.00;;;;;;;;5000205;28;8898;-85
2021/07/21 01:25:45;;;;;;;;;16.50;15.00;;;;;;;;5021478;28;8900;-85
2021/07/21 01:28:14;;;;;;;;;18.50;15.00;;;;;;;;5007154;28;8885;-84
2021/07/21 01:30:44;;;;;;;;;16.00;14.50;;;;;;;;5010140;28;8820;-84
2021/07/21 01:33:13;;;;;;;;;13.50;13.50;;;;;;;;5006985;28;8914;-83
2021/07/21 01:35:45;;;;;;;;;17.25;17.00;;;;;;;;5005121;28;8883;-83
2021/07/21 01:38:17;;;;;;;;;18.00;16.00;;;;;;;;5003659;28;8989;-83
2021/07/21 01:40:48;;;;;;;;;18.00;16.50;;;;;;;;5007145;28;8891;-84
2021/07/21 01:43:20;;;;;;;;;16.25;16.25;;;;;;;;5009042;28;9010;-84
2021/07/21 01:45:48;;;;;;;;;15.00;13.25;;;;;;;;5011138;28;10355;-85
2021/07/21 01:48:16;;;;;;;;;17.25;15.75;;;;;;;;5006136;28;8855;-83
2021/07/21 01:50:44;;;;;;;;;18.50;15.75;;;;;;;;4992165;28;8975;-83
2021/07/21 01:53:12;;;;;;;;;17.25;17.25;;;;;;;;5006598;28;8871;-84
2021/07/21 01:55:39;;;;;;;;;16.75;16.25;;;;;;;;4995105;28;8875;-84
2021/07/21 01:58:07;;;;;;;;;14.00;14.00;;;;;;;;5006412;28;8890;-85
2021/07/21 02:00:37;;;;;;;;;14.00;14.00;;;;;;;;5014469;28;8823;-84
2021/07/21 02:03:05;;;;;;;;;16.50;10.75;;;;;;;;5003775;28;8896;-85
2021/07/21 02:05:32;;;;;;;;;18.50;15.75;;;;;;;;5008043;28;8985;-86
2021/07/21 02:08:01;;;;;;;;;15.50;15.50;;;;;;;;5007315;28;8884;-85
2021/07/21 02:10:31;;;;;;;;;17.50;15.50;;;;;;;;5012301;28;8879;-86
2021/07/21 02:13:01;;;;;;;;;13.50;12.25;;;;;;;;5002843;28;8982;-85
2021/07/21 02:15:29;;;;;;;;;13.25;13.00;;;;;;;;5008739;28;8869;-86
2021/07/21 02:17:58;;;;;;;;;16.75;14.50;;;;;;;;5018052;28;9017;-86
2021/07/21 02:20:26;;;;;;;;;13.00;13.00;;;;;;;;5003787;28;9712;-83
2021/07/21 02:22:54;;;;;;;;;15.50;14.25;;;;;;;;5011054;28;8900;-83
2021/07/21 02:25:23;;;;;;;;;18.50;18.00;;;;;;;;5008242;28;8913;-85
2021/07/21 02:27:51;;;;;;;;;15.00;15.00;;;;;;;;5012998;28;8872;-84
2021/07/21 02:30:18;;;;;;;;;16.25;15.00;;;;;;;;5006517;28;8928;-84
2021/07/21 02:32:54;;;;;;;;;16.00;14.00;;;;;;;;5005896;28;8866;-83
2021/07/21 02:35:22;;;;;;;;;15.50;14.50;;;;;;;;4999932;28;8871;-84
2021/07/21 02:37:50;;;;;;;;;20.25;16.00;;;;;;;;5008533;28;8877;-84
2021/07/21 02:40:18;;;;;;;;;13.75;13.75;;;;;;;;5007119;28;8877;-83
2021/07/21 02:52:58;;;;;;;;;18.50;18.00;;;;;;;;4980326;28;8846;-85
2021/07/21 02:55:30;;;;;;;;;14.25;12.75;;;;;;;;5003838;28;8876;-82
2021/07/21 02:58:01;;;;;;;;;17.00;17.00;;;;;;;;5008518;28;9620;-84
2021/07/21 03:00:31;;;;;;;;;20.50;17.25;;;;;;;;5005884;28;8805;-84
2021/07/21 03:02:59;;;;;;;;;12.67;11.67;;;;;;;;5009369;28;8888;-85
2021/07/21 03:05:29;;;;;;;;;20.75;18.50;;;;;;;;5016145;28;8895;-85
2021/07/21 03:08:00;;;;;;;;;16.25;15.00;;;;;;;;5008115;28;9001;-86
2021/07/21 03:10:27;;;;;;;;;16.00;16.00;;;;;;;;5006473;28;8891;-86
2021/07/21 03:13:00;;;;;;;;;18.00;16.00;;;;;;;;5013065;28;8871;-86
2021/07/21 03:15:30;;;;;;;;;17.50;15.00;;;;;;;;5007819;28;8859;-86
2021/07/21 03:17:58;;;;;;;;;17.25;14.25;;;;;;;;5007106;28;8889;-87
2021/07/21 03:20:26;;;;;;;;;12.25;12.25;;;;;;;;5008350;28;8904;-86
2021/07/21 03:22:55;;;;;;;;;16.25;16.00;;;;;;;;5003228;28;8878;-86
2021/07/21 03:25:24;;;;;;;;;19.50;18.75;;;;;;;;5007778;28;8925;-87
2021/07/21 03:27:52;;;;;;;;;19.25;17.25;;;;;;;;5008151;28;8840;-86
2021/07/21 03:30:20;;;;;;;;;14.50;14.50;;;;;;;;5018571;28;8903;-86
2021/07/21 03:39:35;;;;;;;;;17.00;16.00;;;;;;;;5016524;28;8821;-86
2021/07/21 03:42:06;;;;;;;;;18.50;17.50;;;;;;;;5010844;28;9005;-85
2021/07/21 03:44:33;;;;;;;;;17.75;15.00;;;;;;;;5004113;28;8989;-86
2021/07/21 03:47:00;;;;;;;;;15.25;14.25;;;;;;;;5007389;28;8902;-85
2021/07/21 03:49:29;;;;;;;;;15.50;14.25;;;;;;;;5007119;28;9031;-85
2021/07/21 03:51:56;;;;;;;;;17.75;15.50;;;;;;;;5018769;28;9632;-84
2021/07/21 04:01:11;;;;;;;;;11.25;9.50;;;;;;;;5012150;28;8807;-82
2021/07/21 04:03:39;;;;;;;;;11.25;11.25;;;;;;;;5005686;28;9031;-83
2021/07/21 04:06:57;;;;;;;;;16.00;16.00;;;;;;;;5005274;28;8897;-82
2021/07/21 04:09:25;;;;;;;;;16.25;16.25;;;;;;;;4948223;28;8941;-82
2021/07/21 04:11:56;;;;;;;;;17.50;17.25;;;;;;;;5016178;28;8998;-86
2021/07/21 04:14:24;;;;;;;;;15.75;15.75;;;;;;;;5006224;28;8895;-85
2021/07/21 04:16:54;;;;;;;;;19.75;17.75;;;;;;;;5020190;28;8872;-83
2021/07/21 04:19:22;;;;;;;;;16.50;15.75;;;;;;;;5009033;28;8868;-82
2021/07/21 04:21:50;;;;;;;;;16.50;15.25;;;;;;;;5009324;28;9577;-82
2021/07/21 04:24:19;;;;;;;;;15.25;14.25;;;;;;;;5011883;28;8868;-84
2021/07/21 04:26:47;;;;;;;;;14.75;14.75;;;;;;;;5006218;28;9660;-84
2021/07/21 04:29:17;;;;;;;;;20.75;16.00;;;;;;;;5008950;28;8868;-83
2021/07/21 04:31:45;;;;;;;;;14.00;14.00;;;;;;;;5023298;28;8845;-88
2021/07/21 04:34:15;;;;;;;;;12.00;12.00;;;;;;;;5026882;28;8874;-85
2021/07/21 04:36:44;;;;;;;;;14.25;14.25;;;;;;;;5008095;28;8896;-87
2021/07/21 04:39:14;;;;;;;;;14.75;13.00;;;;;;;;5026491;28;8859;-84
2021/07/21 04:41:43;;;;;;;;;17.00;15.00;;;;;;;;5025275;28;8868;-82
2021/07/21 04:44:13;;;;;;;;;15.25;14.25;;;;;;;;5025482;28;8854;-82
2021/07/21 04:46:41;;;;;;;;;19.50;18.00;;;;;;;;5025566;28;8951;-81
2021/07/21 04:49:11;;;;;;;;;17.50;17.00;;;;;;;;5024655;28;9690;-84
2021/07/21 04:51:40;;;;;;;;;15.75;15.75;;;;;;;;5026759;28;8864;-84
2021/07/21 04:54:08;;;;;;;;;14.50;14.50;;;;;;;;5025215;28;9757;-86
2021/07/21 04:56:35;;;;;;;;;16.50;12.75;;;;;;;;5026213;28;8876;-83
2021/07/21 04:59:03;;;;;;;;;17.00;14.00;;;;;;;;5025312;28;8878;-85
2021/07/21 05:01:31;;;;;;;;;18.75;18.25;;;;;;;;5025441;28;8841;-86
2021/07/21 05:03:58;;;;;;;;;16.50;16.50;;;;;;;;5025809;28;8972;-85
2021/07/21 05:06:26;;;;;;;;;18.25;16.25;;;;;;;;5025222;28;8878;-85
2021/07/21 05:08:55;;;;;;;;;24.00;20.00;;;;;;;;5027094;28;8903;-86
2021/07/21 05:14:47;;;;;;;;;21.50;18.50;;;;;;;;4957295;28;8823;-83
2021/07/21 05:17:14;;;;;;;;;16.50;15.50;;;;;;;;4989198;28;8896;-82
2021/07/21 05:19:41;;;;;;;;;16.25;15.25;;;;;;;;5023340;28;8885;-82
2021/07/21 05:22:09;;;;;;;;;14.00;14.00;;;;;;;;5024987;28;8844;-80
2021/07/21 05:24:38;;;;;;;;;16.50;16.50;;;;;;;;5023060;28;8876;-82
2021/07/21 05:27:06;;;;;;;;;18.75;18.75;;;;;;;;5024483;28;9545;-81
2021/07/21 05:29:33;;;;;;;;;20.50;17.25;;;;;;;;5017744;28;8873;-79
2021/07/21 05:32:00;;;;;;;;;19.25;19.25;;;;;;;;5004083;28;8837;-84
2021/07/21 05:34:28;;;;;;;;;15.25;14.75;;;;;;;;5001018;28;8875;-87
2021/07/21 05:36:58;;;;;;;;;18.75;18.75;;;;;;;;5003980;28;8929;-86
2021/07/21 05:39:25;;;;;;;;;20.75;19.50;;;;;;;;4986939;28;9005;-88
2021/07/21 05:41:56;;;;;;;;;19.50;16.50;;;;;;;;5006238;28;8891;-91
2021/07/21 05:44:24;;;;;;;;;15.00;15.00;;;;;;;;5003424;28;8862;-93
2021/07/21 05:46:51;;;;;;;;;22.50;16.75;;;;;;;;5004904;28;8898;-89
2021/07/21 05:49:20;;;;;;;;;18.75;17.75;;;;;;;;5004728;28;8870;-81
2021/07/21 05:51:47;;;;;;;;;17.00;15.25;;;;;;;;5006808;28;8859;-83
2021/07/21 05:54:15;;;;;;;;;21.00;16.75;;;;;;;;5001589;28;8875;-78
2021/07/21 05:56:42;;;;;;;;;20.25;18.75;;;;;;;;5006628;28;9569;-80
2021/07/21 05:59:10;;;;;;;;;21.50;17.75;;;;;;;;5007011;28;8874;-78
2021/07/21 06:01:38;;;;;;;;;22.00;19.25;;;;;;;;5007793;28;8867;-85
2021/07/21 06:04:05;;;;;;;;;21.25;19.75;;;;;;;;5004412;28;8917;-83
2021/07/21 06:06:32;;;;;;;;;15.00;15.00;;;;;;;;5010208;28;8887;-81
2021/07/21 06:09:00;;;;;;;;;17.50;17.50;;;;;;;;5012171;28;8902;-83
2021/07/21 06:11:27;;;;;;;;;19.50;17.50;;;;;;;;5005938;28;8874;-81
2021/07/21 06:13:57;;;;;;;;;22.75;21.75;;;;;;;;5003343;28;9010;-85
2021/07/21 06:16:26;;;;;;;;;22.00;19.75;;;;;;;;5005973;28;8853;-86
2021/07/21 06:18:54;;;;;;;;;19.50;17.75;;;;;;;;4998259;28;8865;-83
2021/07/21 06:21:22;;;;;;;;;20.00;19.33;;;;;;;;5006869;28;8882;-81
2021/07/21 06:23:49;;;;;;;;;14.25;14.25;;;;;;;;5003753;28;8999;-81
2021/07/21 06:26:16;;;;;;;;;18.00;17.75;;;;;;;;5016550;28;8907;-80
2021/07/21 06:28:44;;;;;;;;;24.25;20.75;;;;;;;;5010672;28;8863;-80
2021/07/21 06:31:11;;;;;;;;;21.75;19.25;;;;;;;;5014618;28;9578;-76
2021/07/21 06:33:40;;;;;;;;;21.00;18.00;;;;;;;;5014732;28;8875;-75
2021/07/21 06:36:07;;;;;;;;;18.50;17.75;;;;;;;;4992723;28;8838;-74
2021/07/21 06:38:34;;;;;;;;;19.00;19.00;;;;;;;;5001730;28;8879;-73
2021/07/21 06:41:02;;;;;;;;;19.00;19.00;;;;;;;;5021259;28;8879;-74
2021/07/21 06:43:30;;;;;;;;;20.00;19.50;;;;;;;;5001743;28;8975;-75
2021/07/21 06:45:57;;;;;;;;;16.00;16.00;;;;;;;;5003492;28;8890;-73
2021/07/21 06:48:24;;;;;;;;;19.25;17.50;;;;;;;;5003758;28;8952;-74
2021/07/21 06:50:53;;;;;;;;;14.60;14.60;;;;;;;;5016909;28;8863;-73
2021/07/21 06:53:20;;;;;;;;;20.60;19.60;;;;;;;;5018550;28;8901;-76
2021/07/21 06:55:47;;;;;;;;;18.20;18.20;;;;;;;;5006324;28;9450;-76
2021/07/21 06:58:15;;;;;;;;;21.00;19.40;;;;;;;;5003423;28;8863;-83
2021/07/21 07:00:42;;;;;;;;;20.20;18.40;;;;;;;;5000835;28;8793;-81
2021/07/21 07:03:10;;;;;;;;;14.80;14.80;;;;;;;;5003959;28;8870;-82
2021/07/21 07:05:38;;;;;;;;;14.00;14.00;;;;;;;;5003389;28;8974;-82
2021/07/21 07:08:07;;;;;;;;;17.60;17.60;;;;;;;;5008095;28;8997;-82
2021/07/21 07:10:34;;;;;;;;;26.80;23.60;;;;;;;;5004103;28;8880;-81
2021/07/21 07:13:03;;;;;;;;;20.20;20.00;;;;;;;;5007606;28;8896;-82
2021/07/21 07:15:30;;;;;;;;;22.00;20.20;;;;;;;;5001363;28;8876;-82
2021/07/21 07:17:57;;;;;;;;;20.00;20.00;;;;;;;;5016125;28;8886;-83
2021/07/21 07:20:24;;;;;;;;;20.20;20.20;;;;;;;;5023513;28;8888;-82
2021/07/21 07:22:52;;;;;;;;;20.00;17.80;;;;;;;;5022688;28;8903;-82
2021/07/21 07:25:20;;;;;;;;;19.00;18.40;;;;;;;;5020899;28;8987;-83
2021/07/21 07:27:47;;;;;;;;;23.40;22.00;;;;;;;;5021051;28;8903;-81
2021/07/21 07:30:15;;;;;;;;;24.00;22.60;;;;;;;;5022022;28;8899;-82
2021/07/21 07:32:43;;;;;;;;;24.40;24.40;;;;;;;;5023999;28;8880;-82
2021/07/21 07:35:11;;;;;;;;;22.40;22.20;;;;;;;;5014089;28;8868;-81
2021/07/21 07:37:38;;;;;;;;;24.00;20.60;;;;;;;;5007908;28;9790;-83
2021/07/21 07:40:07;;;;;;;;;19.00;17.60;;;;;;;;5011666;28;8848;-82
2021/07/21 07:42:36;;;;;;;;;22.60;21.40;;;;;;;;5015409;28;9049;-82
2021/07/21 07:45:05;;;;;;;;;23.80;21.40;;;;;;;;5016014;28;8864;-82
2021/07/21 07:47:33;;;;;;;;;23.80;23.80;;;;;;;;5026142;28;8903;-82
2021/07/21 07:50:00;;;;;;;;;25.40;24.40;;;;;;;;5027323;28;8879;-82
2021/07/21 07:52:27;;;;;;;;;22.40;21.40;;;;;;;;5012893;28;9630;-81
2021/07/21 07:54:55;;;;;;;;;23.20;21.20;;;;;;;;5026861;28;8890;-81
2021/07/21 07:57:22;;;;;;;;;29.40;23.40;;;;;;;;5025492;28;8880;-82
2021/07/21 07:59:50;;;;;;;;;24.80;23.00;;;;;;;;5023237;28;9655;-82
2021/07/21 08:02:18;;;;;;;;;28.40;26.40;;;;;;;;5025707;28;8816;-82
2021/07/21 08:04:45;;;;;;;;;19.80;19.80;;;;;;;;5010420;28;8870;-82
2021/07/21 08:07:13;;;;;;;;;19.60;19.60;;;;;;;;5026127;28;8914;-82
2021/07/21 08:09:40;;;;;;;;;22.20;22.00;;;;;;;;5025329;28;8888;-81
2021/07/21 08:12:08;;;;;;;;;23.60;23.60;;;;;;;;5026863;28;8872;-83
2021/07/21 08:14:35;;;;;;;;;26.40;23.80;;;;;;;;5024060;28;8883;-82
2021/07/21 08:17:04;;;;;;;;;26.20;24.80;;;;;;;;5006525;28;8884;-82
2021/07/21 08:19:32;;;;;;;;;26.80;22.20;;;;;;;;5020413;28;8982;-82
2021/07/21 08:21:59;;;;;;;;;26.40;23.40;;;;;;;;5016757;28;8855;-82
2021/07/21 08:24:26;;;;;;;;;25.00;23.40;;;;;;;;5007965;28;8880;-81
2021/07/21 08:26:53;;;;;;;;;20.40;18.80;;;;;;;;5016954;28;8898;-82
2021/07/21 08:29:21;;;;;;;;;24.40;21.60;;;;;;;;5021686;28;8895;-81
2021/07/21 08:31:49;;;;;;;;;24.60;24.00;;;;;;;;5016416;28;8947;-82
2021/07/21 08:34:18;;;;;;;;;20.20;20.20;;;;;;;;5015429;28;8874;-82
2021/07/21 08:36:45;;;;;;;;;23.40;21.20;;;;;;;;5019692;28;8874;-82
2021/07/21 08:39:13;;;;;;;;;18.80;16.80;;;;;;;;5006742;28;8883;-83
2021/07/21 08:41:40;;;;;;;;;21.80;21.80;;;;;;;;5026190;28;8990;-82
2021/07/21 08:44:08;;;;;;;;;28.40;25.20;;;;;;;;5014122;28;8883;-83
2021/07/21 08:46:39;;;;;;;;;24.40;20.80;;;;;;;;5026190;28;8974;-82
2021/07/21 08:49:07;;;;;;;;;23.20;23.20;;;;;;;;5012689;28;8986;-82
2021/07/21 08:51:37;;;;;;;;;21.40;20.80;;;;;;;;5021479;28;9018;-83
2021/07/21 08:54:05;;;;;;;;;22.00;21.80;;;;;;;;5025578;28;8900;-85
2021/07/21 08:56:33;;;;;;;;;23.00;21.40;;;;;;;;5024879;28;8880;-83
2021/07/21 08:59:00;;;;;;;;;21.40;19.80;;;;;;;;5025427;28;8898;-82
2021/07/21 09:01:28;;;;;;;;;21.20;20.60;;;;;;;;5020966;28;8926;-83
2021/07/21 09:03:55;;;;;;;;;21.80;20.20;;;;;;;;5016939;28;8851;-82
2021/07/21 09:06:22;;;;;;;;;24.80;20.60;;;;;;;;5016134;28;9016;-83
2021/07/21 09:08:51;;;;;;;;;17.80;17.80;;;;;;;;5025917;28;8876;-82
2021/07/21 09:11:20;;;;;;;;;19.60;19.60;;;;;;;;5024254;28;8953;-83
2021/07/21 09:13:47;;;;;;;;;15.20;12.80;;;;;;;;5018735;28;8908;-82
2021/07/21 09:16:14;;;;;;;;;19.00;19.00;;;;;;;;5017669;28;8969;-82
2021/07/21 09:18:52;;;;;;;;;19.20;19.20;;;;;;;;5024661;28;8859;-82
2021/07/21 09:21:20;;;;;;;;;21.80;21.80;;;;;;;;5025676;28;8871;-82
2021/07/21 09:23:51;;;;;;;;;22.20;20.60;;;;;;;;5019180;28;8893;-82
2021/07/21 09:26:21;;;;;;;;;27.00;22.80;;;;;;;;5005218;28;8862;-83
2021/07/21 09:28:48;;;;;;;;;20.20;17.80;;;;;;;;5004222;28;8906;-83
2021/07/21 09:31:28;;;;;;;;;18.60;16.80;;;;;;;;5004465;28;8805;-83
2021/07/21 09:33:55;;;;;;;;;16.00;16.00;;;;;;;;5005420;28;8895;-83
2021/07/21 09:36:23;;;;;;;;;11.20;11.20;;;;;;;;5004044;28;9470;-84
2021/07/21 09:39:01;;;;;;;;;21.00;19.20;;;;;;;;5004138;28;8911;-82
2021/07/21 09:41:28;;;;;;;;;18.60;18.60;;;;;;;;5004195;28;8884;-82
2021/07/21 09:44:01;;;;;;;;;16.00;12.00;;;;;;;;5005084;28;8895;-82
2021/07/21 09:46:28;;;;;;;;;19.00;19.00;;;;;;;;5004610;28;8894;-83
2021/07/21 09:48:55;;;;;;;;;18.80;17.60;;;;;;;;5004244;28;8886;-82
2021/07/21 09:51:28;;;;;;;;;18.60;18.60;;;;;;;;5003477;28;8969;-80
2021/07/21 09:53:56;;;;;;;;;21.00;19.40;;;;;;;;5002646;28;8924;-79
2021/07/21 09:56:30;;;;;;;;;22.00;21.60;;;;;;;;5003214;28;8967;-78
2021/07/21 09:59:24;;;;;;;;;21.80;21.80;;;;;;;;5001866;28;9001;-79
2021/07/21 10:01:52;;;;;;;;;22.00;21.60;;;;;;;;5001842;28;8835;-79
2021/07/21 10:04:33;;;;;;;;;22.60;22.60;;;;;;;;5002893;28;8859;-79
2021/07/21 10:07:04;;;;;;;;;21.40;21.40;;;;;;;;5002375;28;8874;-79
2021/07/21 10:09:34;;;;;;;;;22.60;19.20;;;;;;;;5004881;28;9751;-78
2021/07/21 10:12:01;;;;;;;;;21.60;21.20;;;;;;;;5001021;28;8994;-79
2021/07/21 10:14:29;;;;;;;;;19.40;16.60;;;;;;;;5002669;28;8866;-79
2021/07/21 10:16:56;;;;;;;;;14.40;14.40;;;;;;;;5003205;28;8953;-79
2021/07/21 10:19:25;;;;;;;;;16.20;14.80;;;;;;;;5003386;28;8866;-79
2021/07/21 10:21:56;;;;;;;;;18.20;17.20;;;;;;;;5005412;28;8913;-81
2021/07/21 10:24:25;;;;;;;;;18.80;16.80;;;;;;;;5003967;28;8918;-76
2021/07/21 10:26:54;;;;;;;;;17.40;16.00;;;;;;;;5004717;28;8898;-76
2021/07/21 10:29:23;;;;;;;;;14.00;13.80;;;;;;;;5001454;28;8893;-77
2021/07/21 10:31:50;;;;;;;;;14.00;14.00;;;;;;;;4999814;28;8804;-77
2021/07/21 10:34:18;;;;;;;;;16.80;16.40;;;;;;;;5013386;28;8844;-77
2021/07/21 10:36:46;;;;;;;;;16.00;16.00;;;;;;;;5011100;28;8885;-77
2021/07/21 10:39:58;;;;;;;;;16.20;15.00;;;;;;;;5000608;28;8866;-78
2021/07/21 10:42:29;;;;;;;;;14.20;14.20;;;;;;;;5000683;28;8890;-78
2021/07/21 10:44:57;;;;;;;;;16.60;15.20;;;;;;;;5006532;28;8884;-74
2021/07/21 10:47:26;;;;;;;;;16.00;13.60;;;;;;;;5010109;28;9716;-79
2021/07/21 10:49:56;;;;;;;;;21.00;18.40;;;;;;;;5002960;28;8887;-77
2021/07/21 10:55:20;;;;;;;;;23.60;19.40;;;;;;;;5000672;28;8848;-78
2021/07/21 11:00:42;;;;;;;;;13.80;13.60;;;;;;;;5004794;28;8878;-78
2021/07/21 11:03:21;;;;;;;;;16.40;16.40;;;;;;;;5007233;28;8859;-80
2021/07/21 11:05:57;;;;;;;;;15.20;15.20;;;;;;;;5003459;28;8878;-78
2021/07/21 11:08:26;;;;;;;;;14.80;13.20;;;;;;;;5000604;28;8866;-79
2021/07/21 11:10:55;;;;;;;;;19.00;18.60;;;;;;;;5002991;28;9531;-77
2021/07/21 11:13:40;;;;;;;;;18.00;16.20;;;;;;;;5011490;28;8891;-80
2021/07/21 11:16:29;;;;;;;;;14.60;14.20;;;;;;;;4994227;28;8874;-78
2021/07/21 11:18:57;;;;;;;;;17.40;17.40;;;;;;;;5003212;28;8870;-77
2021/07/21 11:21:25;;;;;;;;;16.80;15.80;;;;;;;;5006555;28;8986;-79
2021/07/21 11:24:03;;;;;;;;;16.40;16.40;;;;;;;;5010674;28;8997;-78
2021/07/21 11:26:42;;;;;;;;;16.00;16.00;;;;;;;;5014985;28;8922;-78
2021/07/21 11:29:46;;;;;;;;;17.80;15.20;;;;;;;;5003267;28;8979;-79
2021/07/21 11:32:29;;;;;;;;;14.40;12.20;;;;;;;;5010217;28;8817;-77
2021/07/21 11:34:59;;;;;;;;;20.80;18.20;;;;;;;;5003424;28;8903;-76
2021/07/21 11:37:33;;;;;;;;;16.40;15.40;;;;;;;;5005692;28;8944;-79
2021/07/21 11:40:13;;;;;;;;;17.80;17.80;;;;;;;;5012902;28;8894;-81
2021/07/21 11:42:41;;;;;;;;;16.00;14.00;;;;;;;;5011134;28;8868;-78
2021/07/21 11:45:12;;;;;;;;;19.00;16.00;;;;;;;;5022136;28;8926;-77
2021/07/21 11:47:41;;;;;;;;;20.80;19.60;;;;;;;;5011597;28;8862;-77
2021/07/21 11:50:12;;;;;;;;;14.60;14.60;;;;;;;;5003445;28;8900;-76
2021/07/21 11:52:39;;;;;;;;;17.40;16.60;;;;;;;;5020255;28;8878;-78
2021/07/21 11:55:08;;;;;;;;;17.40;17.40;;;;;;;;5005496;28;8878;-79
2021/07/21 11:57:35;;;;;;;;;23.20;22.00;;;;;;;;4990124;28;8837;-82
2021/07/21 12:00:04;;;;;;;;;17.20;17.20;;;;;;;;5008364;28;8879;-85
2021/07/21 12:02:31;;;;;;;;;15.00;15.00;;;;;;;;5007582;28;8847;-82
2021/07/21 12:04:59;;;;;;;;;18.20;17.60;;;;;;;;4999902;28;8897;-80
2021/07/21 12:07:35;;;;;;;;;18.20;16.80;;;;;;;;5011989;28;9638;-87
2021/07/21 12:10:13;;;;;;;;;16.40;16.40;;;;;;;;5001947;28;8885;-78
2021/07/21 12:12:41;;;;;;;;;19.80;16.60;;;;;;;;5009603;28;8888;-84
2021/07/21 12:15:10;;;;;;;;;16.20;16.20;;;;;;;;5007930;28;8871;-84
2021/07/21 12:17:37;;;;;;;;;18.80;18.80;;;;;;;;5002960;28;8871;-84
2021/07/21 12:20:07;;;;;;;;;17.40;16.00;;;;;;;;5007684;28;8890;-81
2021/07/21 12:22:37;;;;;;;;;17.20;15.40;;;;;;;;5005040;28;8898;-80
2021/07/21 12:25:07;;;;;;;;;19.60;18.00;;;;;;;;5009074;28;9702;-81
2021/07/21 12:27:36;;;;;;;;;20.60;17.60;;;;;;;;5022302;28;8903;-79
2021/07/21 12:30:07;;;;;;;;;17.20;17.20;;;;;;;;4994935;28;8953;-81
2021/07/21 12:32:34;;;;;;;;;18.80;17.20;;;;;;;;5006642;28;8876;-80
2021/07/21 12:35:02;;;;;;;;;19.00;18.40;;;;;;;;5005558;28;8983;-80
2021/07/21 12:37:31;;;;;;;;;15.40;15.40;;;;;;;;5006751;28;8872;-81
2021/07/21 12:40:00;;;;;;;;;15.00;15.00;;;;;;;;5005968;28;8880;-82
2021/07/21 12:42:30;;;;;;;;;15.00;15.00;;;;;;;;5004760;28;9527;-80
2021/07/21 12:45:01;;;;;;;;;19.40;16.00;;;;;;;;4993310;28;9002;-81
2021/07/21 12:47:30;;;;;;;;;15.40;15.40;;;;;;;;5005052;28;8930;-80
2021/07/21 12:49:59;;;;;;;;;18.40;18.40;;;;;;;;5006235;28;8864;-80
2021/07/21 12:52:28;;;;;;;;;17.80;16.20;;;;;;;;5005341;28;8908;-82
2021/07/21 12:54:57;;;;;;;;;14.00;14.00;;;;;;;;5006243;28;8872;-80
2021/07/21 12:57:49;;;;;;;;;13.80;13.80;;;;;;;;5005779;28;9015;-81
2021/07/21 13:00:18;;;;;;;;;18.00;17.40;;;;;;;;5004603;28;8868;-84
2021/07/21 13:02:56;;;;;;;;;15.60;15.60;;;;;;;;5006299;28;8866;-80
2021/07/21 13:05:37;;;;;;;;;14.20;14.20;;;;;;;;5001972;28;8910;-80
2021/07/21 13:08:06;;;;;;;;;17.60;17.60;;;;;;;;5005113;28;8898;-83
2021/07/21 13:10:37;;;;;;;;;15.40;14.80;;;;;;;;5005769;28;8969;-82
2021/07/21 13:13:07;;;;;;;;;16.20;16.20;;;;;;;;5005546;28;8872;-81
2021/07/21 13:15:35;;;;;;;;;17.00;17.00;;;;;;;;5005974;28;8929;-83
2021/07/21 13:18:05;;;;;;;;;17.00;15.40;;;;;;;;5004844;28;8866;-84
2021/07/21 13:20:36;;;;;;;;;16.00;16.00;;;;;;;;5005990;28;8980;-82
2021/07/21 13:23:11;;;;;;;;;16.40;16.40;;;;;;;;5003444;28;8880;-80
2021/07/21 13:25:38;;;;;;;;;18.60;17.00;;;;;;;;5006142;28;8915;-81
2021/07/21 13:28:28;;;;;;;;;14.40;14.40;;;;;;;;5005173;28;8886;-80
2021/07/21 13:30:59;;;;;;;;;18.40;16.60;;;;;;;;5005930;28;8797;-83
2021/07/21 13:33:33;;;;;;;;;14.40;14.40;;;;;;;;5025647;28;8896;-80
2021/07/21 13:36:06;;;;;;;;;15.80;12.60;;;;;;;;5024113;28;8994;-85
2021/07/21 13:38:33;;;;;;;;;16.40;15.60;;;;;;;;5025505;28;8914;-81
2021/07/21 13:41:03;;;;;;;;;12.20;12.20;;;;;;;;5024569;28;8861;-82
2021/07/21 13:43:33;;;;;;;;;16.20;15.20;;;;;;;;5024210;28;8884;-82
2021/07/21 13:46:24;;;;;;;;;15.00;12.20;;;;;;;;5025220;28;8856;-85
2021/07/21 13:48:59;;;;;;;;;16.40;15.20;;;;;;;;5023980;28;8907;-82
2021/07/21 13:51:31;;;;;;;;;11.40;11.40;;;;;;;;5024912;28;8882;-81
2021/07/21 13:53:58;;;;;;;;;15.80;14.20;;;;;;;;5024359;28;8885;-83
2021/07/21 13:56:26;;;;;;;;;17.00;14.80;;;;;;;;5021624;28;8884;-81
2021/07/21 13:58:54;;;;;;;;;17.20;15.40;;;;;;;;5024733;28;9020;-80
2021/07/21 14:01:21;;;;;;;;;16.40;15.60;;;;;;;;5023150;28;8790;-85
2021/07/21 14:03:49;;;;;;;;;15.80;15.00;;;;;;;;5024178;28;9690;-81
2021/07/21 14:06:16;;;;;;;;;13.00;13.00;;;;;;;;5024055;28;9674;-81
2021/07/21 14:08:43;;;;;;;;;13.00;12.20;;;;;;;;5025076;28;8866;-81
2021/07/21 14:11:11;;;;;;;;;13.60;13.60;;;;;;;;5023943;28;8917;-81
2021/07/21 14:13:38;;;;;;;;;10.60;10.60;;;;;;;;5024194;28;8878;-82
2021/07/21 14:16:07;;;;;;;;;13.40;13.40;;;;;;;;5006881;28;8858;-80
2021/07/21 14:18:34;;;;;;;;;17.20;16.40;;;;;;;;5006026;28;8861;-82
2021/07/21 14:21:02;;;;;;;;;14.00;13.40;;;;;;;;5024445;28;8846;-81
2021/07/21 14:23:29;;;;;;;;;11.20;11.20;;;;;;;;5024430;28;8888;-80
2021/07/21 14:25:56;;;;;;;;;12.60;12.60;;;;;;;;5008155;28;8878;-90
2021/07/21 14:28:24;;;;;;;;;12.80;12.80;;;;;;;;5024261;28;8870;-82
2021/07/21 14:30:51;;;;;;;;;13.80;13.80;;;;;;;;5009801;28;8842;-91
2021/07/21 14:33:20;;;;;;;;;12.40;12.40;;;;;;;;5004306;28;8867;-83
2021/07/21 14:35:49;;;;;;;;;12.20;12.20;;;;;;;;5003925;28;8917;-84
2021/07/21 14:38:16;;;;;;;;;13.00;11.60;;;;;;;;5014075;28;8856;-82
2021/07/21 14:40:44;;;;;;;;;12.20;12.20;;;;;;;;5023427;28;8919;-85
2021/07/21 14:43:11;;;;;;;;;12.20;12.20;;;;;;;;5018047;28;8868;-80
2021/07/21 14:45:38;;;;;;;;;13.60;12.80;;;;;;;;5019873;28;10339;-86
2021/07/21 14:48:07;;;;;;;;;15.80;13.00;;;;;;;;5018308;28;8889;-84
2021/07/21 14:50:36;;;;;;;;;11.00;9.20;;;;;;;;5022417;28;8872;-86
2021/07/21 14:53:03;;;;;;;;;14.00;14.00;;;;;;;;5006275;28;8872;-83
2021/07/21 14:55:30;;;;;;;;;12.00;11.20;;;;;;;;5028190;28;8869;-81
2021/07/21 14:57:57;;;;;;;;;13.80;13.80;;;;;;;;5027498;28;8919;-83
2021/07/21 15:00:27;;;;;;;;;12.60;12.60;;;;;;;;5014357;28;8815;-81
2021/07/21 15:02:55;;;;;;;;;10.00;10.00;;;;;;;;5026489;28;8868;-82
2021/07/21 15:05:23;;;;;;;;;14.00;14.00;;;;;;;;4991497;28;8882;-83
2021/07/21 15:07:51;;;;;;;;;14.20;12.60;;;;;;;;5019866;28;8997;-80
2021/07/21 15:10:19;;;;;;;;;14.20;12.60;;;;;;;;5027889;28;8965;-80
2021/07/21 15:12:46;;;;;;;;;12.40;11.80;;;;;;;;5015895;28;8847;-79
2021/07/21 15:15:13;;;;;;;;;13.20;12.20;;;;;;;;5004517;28;8883;-79
2021/07/21 15:17:41;;;;;;;;;12.80;12.80;;;;;;;;5004463;28;8879;-81
2021/07/21 15:20:10;;;;;;;;;9.80;9.80;;;;;;;;5008569;28;8958;-79